sensor_id;sensor_type;location;lat;lon;timestamp;P1;durP1;ratioP1;P2;durP2;ratioP2
77018;SDS011;66044;53.142;17.962;2023-04-22T00:00:01;10.00;;;4.80;;
77018;SDS011;66044;53.142;17.962;2023-04-22T00:02:27;9.00;;;4.00;;
77018;SDS011;66044;53.142;17.962;2023-04-22T00:04:54;8.00;;;3.00;;
77018;SDS011;66044;53.142;17.962;2023-04-22T00:07:22;8.70;;;3.40;;
77018;SDS011;66044;53.142;17.962;2023-04-22T00:09:48;8.70;;;3.50;;
77018;SDS011;66044;53.142;17.962;2023-04-22T00:12:15;8.20;;;3.80;;
77018;SDS011;66044;53.142;17.962;2023-04-22T00:14:41;8.20;;;3.60;;
77018;SDS011;66044;53.142;17.962;2023-04-22T00:17:08;12.60;;;4.00;;
77018;SDS011;66044;53.142;17.962;2023-04-22T00:19:34;7.90;;;3.10;;
77018;SDS011;66044;53.142;17.962;2023-04-22T00:22:02;7.70;;;3.30;;
77018;SDS011;66044;53.142;17.962;2023-04-22T00:24:29;7.40;;;3.00;;
77018;SDS011;66044;53.142;17.962;2023-04-22T00:26:55;8.90;;;3.50;;
77018;SDS011;66044;53.142;17.962;2023-04-22T00:29:22;9.20;;;3.30;;
77018;SDS011;66044;53.142;17.962;2023-04-22T00:31:48;8.30;;;3.10;;
77018;SDS011;66044;53.142;17.962;2023-04-22T00:34:15;10.40;;;3.20;;
77018;SDS011;66044;53.142;17.962;2023-04-22T00:36:43;10.10;;;3.60;;
77018;SDS011;66044;53.142;17.962;2023-04-22T00:39:09;9.90;;;4.20;;
77018;SDS011;66044;53.142;17.962;2023-04-22T00:41:37;10.30;;;3.80;;
77018;SDS011;66044;53.142;17.962;2023-04-22T00:44:07;10.20;;;4.00;;
77018;SDS011;66044;53.142;17.962;2023-04-22T00:46:36;11.50;;;3.80;;
77018;SDS011;66044;53.142;17.962;2023-04-22T00:49:04;8.60;;;3.20;;
77018;SDS011;66044;53.142;17.962;2023-04-22T00:51:31;10.60;;;3.50;;
77018;SDS011;66044;53.142;17.962;2023-04-22T00:53:58;10.30;;;4.00;;
77018;SDS011;66044;53.142;17.962;2023-04-22T00:56:27;10.50;;;3.40;;
77018;SDS011;66044;53.142;17.962;2023-04-22T00:58:55;9.60;;;3.20;;
77018;SDS011;66044;53.142;17.962;2023-04-22T01:01:22;8.20;;;3.60;;
77018;SDS011;66044;53.142;17.962;2023-04-22T01:03:48;8.40;;;3.40;;
77018;SDS011;66044;53.142;17.962;2023-04-22T01:06:17;9.20;;;3.70;;
77018;SDS011;66044;53.142;17.962;2023-04-22T01:08:44;7.90;;;3.30;;
77018;SDS011;66044;53.142;17.962;2023-04-22T01:11:12;10.60;;;3.60;;
77018;SDS011;66044;53.142;17.962;2023-04-22T01:13:39;8.40;;;3.40;;
77018;SDS011;66044;53.142;17.962;2023-04-22T01:16:06;8.00;;;3.00;;
77018;SDS011;66044;53.142;17.962;2023-04-22T01:18:37;10.50;;;3.50;;
77018;SDS011;66044;53.142;17.962;2023-04-22T01:21:04;9.60;;;3.30;;
77018;SDS011;66044;53.142;17.962;2023-04-22T01:23:30;9.20;;;3.30;;
77018;SDS011;66044;53.142;17.962;2023-04-22T01:25:58;7.70;;;3.10;;
77018;SDS011;66044;53.142;17.962;2023-04-22T01:28:25;8.00;;;3.20;;
77018;SDS011;66044;53.142;17.962;2023-04-22T01:30:51;10.60;;;3.70;;
77018;SDS011;66044;53.142;17.962;2023-04-22T01:33:18;7.80;;;3.50;;
77018;SDS011;66044;53.142;17.962;2023-04-22T01:35:45;8.70;;;3.40;;
77018;SDS011;66044;53.142;17.962;2023-04-22T01:38:11;10.60;;;3.70;;
77018;SDS011;66044;53.142;17.962;2023-04-22T01:40:38;10.10;;;4.10;;
77018;SDS011;66044;53.142;17.962;2023-04-22T01:43:05;11.00;;;3.60;;
77018;SDS011;66044;53.142;17.962;2023-04-22T01:45:32;10.00;;;3.50;;
77018;SDS011;66044;53.142;17.962;2023-04-22T01:47:58;10.10;;;3.70;;
77018;SDS011;66044;53.142;17.962;2023-04-22T01:50:25;8.00;;;2.80;;
77018;SDS011;66044;53.142;17.962;2023-04-22T01:52:52;11.80;;;3.50;;
77018;SDS011;66044;53.142;17.962;2023-04-22T01:55:18;7.20;;;2.90;;
77018;SDS011;66044;53.142;17.962;2023-04-22T01:57:45;7.90;;;3.40;;
77018;SDS011;66044;53.142;17.962;2023-04-22T02:00:11;7.00;;;2.90;;
77018;SDS011;66044;53.142;17.962;2023-04-22T02:02:38;7.40;;;2.70;;
77018;SDS011;66044;53.142;17.962;2023-04-22T02:05:05;8.70;;;2.90;;
77018;SDS011;66044;53.142;17.962;2023-04-22T02:07:32;6.80;;;2.70;;
77018;SDS011;66044;53.142;17.962;2023-04-22T02:10:02;7.00;;;2.50;;
77018;SDS011;66044;53.142;17.962;2023-04-22T02:12:30;6.30;;;2.10;;
77018;SDS011;66044;53.142;17.962;2023-04-22T02:14:57;6.90;;;2.50;;
77018;SDS011;66044;53.142;17.962;2023-04-22T02:17:24;6.80;;;2.30;;
77018;SDS011;66044;53.142;17.962;2023-04-22T02:19:51;7.90;;;2.20;;
77018;SDS011;66044;53.142;17.962;2023-04-22T02:22:17;8.40;;;2.20;;
77018;SDS011;66044;53.142;17.962;2023-04-22T02:24:44;6.50;;;2.30;;
77018;SDS011;66044;53.142;17.962;2023-04-22T02:27:10;7.70;;;2.60;;
77018;SDS011;66044;53.142;17.962;2023-04-22T02:29:37;6.70;;;2.30;;
77018;SDS011;66044;53.142;17.962;2023-04-22T02:32:03;6.40;;;2.10;;
77018;SDS011;66044;53.142;17.962;2023-04-22T02:34:30;6.80;;;2.20;;
77018;SDS011;66044;53.142;17.962;2023-04-22T02:36:56;7.10;;;2.20;;
77018;SDS011;66044;53.142;17.962;2023-04-22T02:39:24;7.60;;;2.50;;
77018;SDS011;66044;53.142;17.962;2023-04-22T02:41:50;5.80;;;2.00;;
77018;SDS011;66044;53.142;17.962;2023-04-22T02:44:17;7.70;;;2.60;;
77018;SDS011;66044;53.142;17.962;2023-04-22T02:46:43;7.40;;;2.60;;
77018;SDS011;66044;53.142;17.962;2023-04-22T02:49:10;7.00;;;2.60;;
77018;SDS011;66044;53.142;17.962;2023-04-22T02:51:37;7.00;;;2.50;;
77018;SDS011;66044;53.142;17.962;2023-04-22T02:54:04;6.10;;;2.20;;
77018;SDS011;66044;53.142;17.962;2023-04-22T02:56:30;6.80;;;2.60;;
77018;SDS011;66044;53.142;17.962;2023-04-22T02:58:57;5.60;;;2.00;;
77018;SDS011;66044;53.142;17.962;2023-04-22T03:01:23;7.10;;;2.60;;
77018;SDS011;66044;53.142;17.962;2023-04-22T03:03:50;6.90;;;2.40;;
77018;SDS011;66044;53.142;17.962;2023-04-22T03:06:16;8.40;;;3.00;;
77018;SDS011;66044;53.142;17.962;2023-04-22T03:08:43;9.00;;;3.30;;
77018;SDS011;66044;53.142;17.962;2023-04-22T03:11:10;8.00;;;3.00;;
77018;SDS011;66044;53.142;17.962;2023-04-22T03:13:36;7.50;;;3.00;;
77018;SDS011;66044;53.142;17.962;2023-04-22T03:16:02;8.10;;;2.70;;
77018;SDS011;66044;53.142;17.962;2023-04-22T03:18:29;8.40;;;3.00;;
77018;SDS011;66044;53.142;17.962;2023-04-22T03:20:55;7.40;;;3.20;;
77018;SDS011;66044;53.142;17.962;2023-04-22T03:23:22;9.90;;;3.20;;
77018;SDS011;66044;53.142;17.962;2023-04-22T03:25:48;7.00;;;2.70;;
77018;SDS011;66044;53.142;17.962;2023-04-22T03:28:15;8.60;;;3.40;;
77018;SDS011;66044;53.142;17.962;2023-04-22T03:30:41;7.80;;;3.50;;
77018;SDS011;66044;53.142;17.962;2023-04-22T03:33:08;9.30;;;3.60;;
77018;SDS011;66044;53.142;17.962;2023-04-22T03:35:34;10.40;;;4.40;;
77018;SDS011;66044;53.142;17.962;2023-04-22T03:38:01;9.30;;;4.00;;
77018;SDS011;66044;53.142;17.962;2023-04-22T03:40:27;8.30;;;3.30;;
77018;SDS011;66044;53.142;17.962;2023-04-22T03:42:54;8.20;;;3.80;;
77018;SDS011;66044;53.142;17.962;2023-04-22T03:45:20;11.80;;;3.90;;
77018;SDS011;66044;53.142;17.962;2023-04-22T03:47:47;8.70;;;3.50;;
77018;SDS011;66044;53.142;17.962;2023-04-22T03:50:13;8.90;;;3.60;;
77018;SDS011;66044;53.142;17.962;2023-04-22T03:52:40;9.60;;;3.80;;
77018;SDS011;66044;53.142;17.962;2023-04-22T03:55:06;10.70;;;4.50;;
77018;SDS011;66044;53.142;17.962;2023-04-22T03:57:33;9.50;;;5.00;;
77018;SDS011;66044;53.142;17.962;2023-04-22T03:59:59;10.70;;;4.60;;
77018;SDS011;66044;53.142;17.962;2023-04-22T04:02:26;9.30;;;4.30;;
77018;SDS011;66044;53.142;17.962;2023-04-22T04:04:52;9.50;;;4.10;;
77018;SDS011;66044;53.142;17.962;2023-04-22T04:07:19;9.20;;;4.30;;
77018;SDS011;66044;53.142;17.962;2023-04-22T04:09:45;8.00;;;3.70;;
77018;SDS011;66044;53.142;17.962;2023-04-22T04:12:12;14.30;;;3.60;;
77018;SDS011;66044;53.142;17.962;2023-04-22T04:14:38;8.20;;;3.20;;
77018;SDS011;66044;53.142;17.962;2023-04-22T04:17:04;8.30;;;3.70;;
77018;SDS011;66044;53.142;17.962;2023-04-22T04:19:35;7.20;;;3.10;;
77018;SDS011;66044;53.142;17.962;2023-04-22T04:22:03;7.30;;;3.00;;
77018;SDS011;66044;53.142;17.962;2023-04-22T04:24:29;8.90;;;3.00;;
77018;SDS011;66044;53.142;17.962;2023-04-22T04:26:55;7.30;;;3.20;;
77018;SDS011;66044;53.142;17.962;2023-04-22T04:29:23;7.90;;;2.70;;
77018;SDS011;66044;53.142;17.962;2023-04-22T04:31:50;7.60;;;3.40;;
77018;SDS011;66044;53.142;17.962;2023-04-22T04:34:16;8.90;;;3.90;;
77018;SDS011;66044;53.142;17.962;2023-04-22T04:36:42;7.80;;;3.60;;
77018;SDS011;66044;53.142;17.962;2023-04-22T04:39:11;11.00;;;4.90;;
77018;SDS011;66044;53.142;17.962;2023-04-22T04:41:38;10.30;;;4.60;;
77018;SDS011;66044;53.142;17.962;2023-04-22T04:44:06;10.60;;;4.70;;
77018;SDS011;66044;53.142;17.962;2023-04-22T04:46:32;9.80;;;4.40;;
77018;SDS011;66044;53.142;17.962;2023-04-22T04:48:59;10.20;;;4.30;;
77018;SDS011;66044;53.142;17.962;2023-04-22T04:51:26;9.70;;;4.50;;
77018;SDS011;66044;53.142;17.962;2023-04-22T04:53:53;11.40;;;4.90;;
77018;SDS011;66044;53.142;17.962;2023-04-22T04:56:19;12.20;;;6.20;;
77018;SDS011;66044;53.142;17.962;2023-04-22T04:58:46;13.80;;;7.20;;
77018;SDS011;66044;53.142;17.962;2023-04-22T05:01:12;15.00;;;9.00;;
77018;SDS011;66044;53.142;17.962;2023-04-22T05:03:39;18.50;;;9.80;;
77018;SDS011;66044;53.142;17.962;2023-04-22T05:06:05;14.40;;;7.50;;
77018;SDS011;66044;53.142;17.962;2023-04-22T05:08:32;10.80;;;6.20;;
77018;SDS011;66044;53.142;17.962;2023-04-22T05:10:59;12.20;;;5.80;;
77018;SDS011;66044;53.142;17.962;2023-04-22T05:13:28;12.10;;;6.20;;
77018;SDS011;66044;53.142;17.962;2023-04-22T05:15:54;11.70;;;6.50;;
77018;SDS011;66044;53.142;17.962;2023-04-22T05:18:21;11.90;;;6.30;;
77018;SDS011;66044;53.142;17.962;2023-04-22T05:20:47;11.00;;;5.90;;
77018;SDS011;66044;53.142;17.962;2023-04-22T05:23:14;11.10;;;5.60;;
77018;SDS011;66044;53.142;17.962;2023-04-22T05:25:41;11.70;;;5.30;;
77018;SDS011;66044;53.142;17.962;2023-04-22T05:28:08;8.70;;;5.10;;
77018;SDS011;66044;53.142;17.962;2023-04-22T05:30:35;9.50;;;5.30;;
77018;SDS011;66044;53.142;17.962;2023-04-22T05:33:01;12.10;;;5.00;;
77018;SDS011;66044;53.142;17.962;2023-04-22T05:35:27;8.60;;;4.40;;
77018;SDS011;66044;53.142;17.962;2023-04-22T05:37:54;10.20;;;4.80;;
77018;SDS011;66044;53.142;17.962;2023-04-22T05:40:20;9.40;;;4.80;;
77018;SDS011;66044;53.142;17.962;2023-04-22T05:42:47;10.00;;;4.70;;
77018;SDS011;66044;53.142;17.962;2023-04-22T05:45:13;9.30;;;3.80;;
77018;SDS011;66044;53.142;17.962;2023-04-22T05:47:40;8.60;;;4.50;;
77018;SDS011;66044;53.142;17.962;2023-04-22T05:50:07;8.90;;;4.50;;
77018;SDS011;66044;53.142;17.962;2023-04-22T05:52:34;8.90;;;4.20;;
77018;SDS011;66044;53.142;17.962;2023-04-22T05:55:00;8.30;;;4.90;;
77018;SDS011;66044;53.142;17.962;2023-04-22T05:57:26;9.80;;;4.60;;
77018;SDS011;66044;53.142;17.962;2023-04-22T05:59:53;11.00;;;4.20;;
77018;SDS011;66044;53.142;17.962;2023-04-22T06:02:19;9.00;;;3.70;;
77018;SDS011;66044;53.142;17.962;2023-04-22T06:04:46;8.30;;;4.10;;
77018;SDS011;66044;53.142;17.962;2023-04-22T06:07:12;9.60;;;3.60;;
77018;SDS011;66044;53.142;17.962;2023-04-22T06:09:38;12.20;;;3.10;;
77018;SDS011;66044;53.142;17.962;2023-04-22T06:12:05;12.20;;;3.10;;
77018;SDS011;66044;53.142;17.962;2023-04-22T06:14:31;9.70;;;2.90;;
77018;SDS011;66044;53.142;17.962;2023-04-22T06:16:58;12.20;;;3.30;;
77018;SDS011;66044;53.142;17.962;2023-04-22T06:19:25;10.80;;;3.40;;
77018;SDS011;66044;53.142;17.962;2023-04-22T06:21:52;13.10;;;3.30;;
77018;SDS011;66044;53.142;17.962;2023-04-22T06:24:18;10.90;;;3.20;;
77018;SDS011;66044;53.142;17.962;2023-04-22T06:26:45;7.20;;;2.80;;
77018;SDS011;66044;53.142;17.962;2023-04-22T06:29:11;6.50;;;2.60;;
77018;SDS011;66044;53.142;17.962;2023-04-22T06:31:38;6.60;;;2.40;;
77018;SDS011;66044;53.142;17.962;2023-04-22T06:34:04;6.40;;;2.10;;
77018;SDS011;66044;53.142;17.962;2023-04-22T06:36:31;7.40;;;2.30;;
77018;SDS011;66044;53.142;17.962;2023-04-22T06:39:02;5.60;;;2.10;;
77018;SDS011;66044;53.142;17.962;2023-04-22T06:41:30;7.20;;;2.10;;
77018;SDS011;66044;53.142;17.962;2023-04-22T06:43:58;5.90;;;2.30;;
77018;SDS011;66044;53.142;17.962;2023-04-22T06:46:24;5.90;;;1.90;;
77018;SDS011;66044;53.142;17.962;2023-04-22T06:48:51;6.00;;;2.00;;
77018;SDS011;66044;53.142;17.962;2023-04-22T06:51:17;7.40;;;2.30;;
77018;SDS011;66044;53.142;17.962;2023-04-22T06:53:44;6.40;;;2.30;;
77018;SDS011;66044;53.142;17.962;2023-04-22T06:56:11;8.30;;;2.20;;
77018;SDS011;66044;53.142;17.962;2023-04-22T06:58:37;6.90;;;1.80;;
77018;SDS011;66044;53.142;17.962;2023-04-22T07:01:04;5.80;;;1.80;;
77018;SDS011;66044;53.142;17.962;2023-04-22T07:03:30;5.90;;;1.90;;
77018;SDS011;66044;53.142;17.962;2023-04-22T07:05:57;6.70;;;1.60;;
77018;SDS011;66044;53.142;17.962;2023-04-22T07:08:23;7.20;;;1.70;;
77018;SDS011;66044;53.142;17.962;2023-04-22T07:10:50;6.00;;;1.60;;
77018;SDS011;66044;53.142;17.962;2023-04-22T07:13:16;4.20;;;1.40;;
77018;SDS011;66044;53.142;17.962;2023-04-22T07:15:42;5.80;;;1.80;;
77018;SDS011;66044;53.142;17.962;2023-04-22T07:18:11;6.00;;;1.60;;
77018;SDS011;66044;53.142;17.962;2023-04-22T07:20:37;5.80;;;1.30;;
77018;SDS011;66044;53.142;17.962;2023-04-22T07:23:04;4.40;;;1.20;;
77018;SDS011;66044;53.142;17.962;2023-04-22T07:25:30;4.70;;;1.40;;
77018;SDS011;66044;53.142;17.962;2023-04-22T07:27:57;4.90;;;1.30;;
77018;SDS011;66044;53.142;17.962;2023-04-22T07:30:23;4.10;;;1.30;;
77018;SDS011;66044;53.142;17.962;2023-04-22T07:32:50;5.00;;;1.50;;
77018;SDS011;66044;53.142;17.962;2023-04-22T07:35:17;5.00;;;1.20;;
77018;SDS011;66044;53.142;17.962;2023-04-22T07:37:43;5.40;;;1.40;;
77018;SDS011;66044;53.142;17.962;2023-04-22T07:40:10;8.70;;;1.50;;
77018;SDS011;66044;53.142;17.962;2023-04-22T07:42:39;4.90;;;1.30;;
77018;SDS011;66044;53.142;17.962;2023-04-22T07:45:05;5.00;;;1.10;;
77018;SDS011;66044;53.142;17.962;2023-04-22T07:47:32;4.10;;;1.20;;
77018;SDS011;66044;53.142;17.962;2023-04-22T07:49:59;5.90;;;1.60;;
77018;SDS011;66044;53.142;17.962;2023-04-22T07:52:25;5.60;;;1.60;;
77018;SDS011;66044;53.142;17.962;2023-04-22T07:54:52;3.50;;;1.10;;
77018;SDS011;66044;53.142;17.962;2023-04-22T07:57:18;4.70;;;1.40;;
77018;SDS011;66044;53.142;17.962;2023-04-22T07:59:47;6.00;;;1.30;;
77018;SDS011;66044;53.142;17.962;2023-04-22T08:02:14;4.80;;;1.60;;
77018;SDS011;66044;53.142;17.962;2023-04-22T08:04:41;3.90;;;1.20;;
77018;SDS011;66044;53.142;17.962;2023-04-22T08:07:08;4.60;;;1.30;;
77018;SDS011;66044;53.142;17.962;2023-04-22T08:09:35;5.00;;;1.10;;
77018;SDS011;66044;53.142;17.962;2023-04-22T08:12:03;5.20;;;1.10;;
77018;SDS011;66044;53.142;17.962;2023-04-22T08:14:29;4.90;;;1.20;;
77018;SDS011;66044;53.142;17.962;2023-04-22T08:16:56;7.70;;;1.60;;
77018;SDS011;66044;53.142;17.962;2023-04-22T08:19:22;6.00;;;1.20;;
77018;SDS011;66044;53.142;17.962;2023-04-22T08:21:49;4.50;;;1.00;;
77018;SDS011;66044;53.142;17.962;2023-04-22T08:24:16;4.50;;;1.10;;
77018;SDS011;66044;53.142;17.962;2023-04-22T08:26:43;7.50;;;1.10;;
77018;SDS011;66044;53.142;17.962;2023-04-22T08:29:09;4.40;;;1.10;;
77018;SDS011;66044;53.142;17.962;2023-04-22T08:31:36;5.20;;;1.20;;
77018;SDS011;66044;53.142;17.962;2023-04-22T08:34:02;5.50;;;1.10;;
77018;SDS011;66044;53.142;17.962;2023-04-22T08:36:29;4.70;;;1.30;;
77018;SDS011;66044;53.142;17.962;2023-04-22T08:38:56;7.00;;;1.40;;
77018;SDS011;66044;53.142;17.962;2023-04-22T08:41:23;4.80;;;1.50;;
77018;SDS011;66044;53.142;17.962;2023-04-22T08:43:51;7.70;;;1.40;;
77018;SDS011;66044;53.142;17.962;2023-04-22T08:46:18;10.20;;;1.60;;
77018;SDS011;66044;53.142;17.962;2023-04-22T08:48:46;4.90;;;1.30;;
77018;SDS011;66044;53.142;17.962;2023-04-22T08:51:14;5.90;;;1.70;;
77018;SDS011;66044;53.142;17.962;2023-04-22T08:53:42;5.20;;;1.30;;
77018;SDS011;66044;53.142;17.962;2023-04-22T08:56:10;6.70;;;1.60;;
77018;SDS011;66044;53.142;17.962;2023-04-22T08:58:41;5.80;;;1.70;;
77018;SDS011;66044;53.142;17.962;2023-04-22T09:01:08;6.10;;;1.70;;
77018;SDS011;66044;53.142;17.962;2023-04-22T09:03:35;6.90;;;1.90;;
77018;SDS011;66044;53.142;17.962;2023-04-22T09:06:04;6.90;;;2.10;;
77018;SDS011;66044;53.142;17.962;2023-04-22T09:08:32;7.50;;;2.00;;
77018;SDS011;66044;53.142;17.962;2023-04-22T09:10:59;7.50;;;2.10;;
77018;SDS011;66044;53.142;17.962;2023-04-22T09:13:26;5.60;;;2.10;;
77018;SDS011;66044;53.142;17.962;2023-04-22T09:15:52;5.60;;;2.00;;
77018;SDS011;66044;53.142;17.962;2023-04-22T09:18:19;22.00;;;2.90;;
77018;SDS011;66044;53.142;17.962;2023-04-22T09:20:46;6.30;;;1.50;;
77018;SDS011;66044;53.142;17.962;2023-04-22T09:23:14;6.20;;;1.90;;
77018;SDS011;66044;53.142;17.962;2023-04-22T09:25:41;8.40;;;3.00;;
77018;SDS011;66044;53.142;17.962;2023-04-22T09:28:10;7.80;;;2.20;;
77018;SDS011;66044;53.142;17.962;2023-04-22T09:30:38;5.90;;;1.90;;
77018;SDS011;66044;53.142;17.962;2023-04-22T09:33:05;7.30;;;1.90;;
77018;SDS011;66044;53.142;17.962;2023-04-22T09:35:34;6.00;;;2.10;;
77018;SDS011;66044;53.142;17.962;2023-04-22T09:38:04;6.60;;;2.10;;
77018;SDS011;66044;53.142;17.962;2023-04-22T09:40:33;9.00;;;2.40;;
77018;SDS011;66044;53.142;17.962;2023-04-22T09:43:01;6.20;;;2.30;;
77018;SDS011;66044;53.142;17.962;2023-04-22T09:45:31;6.70;;;1.80;;
77018;SDS011;66044;53.142;17.962;2023-04-22T09:48:02;6.40;;;1.80;;
77018;SDS011;66044;53.142;17.962;2023-04-22T09:50:29;6.40;;;1.80;;
77018;SDS011;66044;53.142;17.962;2023-04-22T09:55:27;7.30;;;2.10;;
77018;SDS011;66044;53.142;17.962;2023-04-22T09:57:55;5.40;;;1.70;;
77018;SDS011;66044;53.142;17.962;2023-04-22T10:00:23;7.20;;;2.20;;
77018;SDS011;66044;53.142;17.962;2023-04-22T10:02:54;6.50;;;2.00;;
77018;SDS011;66044;53.142;17.962;2023-04-22T10:05:21;7.30;;;2.00;;
77018;SDS011;66044;53.142;17.962;2023-04-22T10:07:47;5.90;;;1.80;;
77018;SDS011;66044;53.142;17.962;2023-04-22T10:10:14;7.50;;;2.40;;
77018;SDS011;66044;53.142;17.962;2023-04-22T10:12:40;8.10;;;1.80;;
77018;SDS011;66044;53.142;17.962;2023-04-22T10:15:07;6.20;;;2.00;;
77018;SDS011;66044;53.142;17.962;2023-04-22T10:17:35;6.60;;;2.10;;
77018;SDS011;66044;53.142;17.962;2023-04-22T10:20:05;5.80;;;1.90;;
77018;SDS011;66044;53.142;17.962;2023-04-22T10:22:39;5.30;;;1.70;;
77018;SDS011;66044;53.142;17.962;2023-04-22T10:25:11;5.50;;;1.60;;
77018;SDS011;66044;53.142;17.962;2023-04-22T10:28:00;5.60;;;2.10;;
77018;SDS011;66044;53.142;17.962;2023-04-22T10:30:30;5.20;;;1.70;;
77018;SDS011;66044;53.142;17.962;2023-04-22T10:38:40;6.80;;;1.80;;
77018;SDS011;66044;53.142;17.962;2023-04-22T10:41:16;5.50;;;1.70;;
77018;SDS011;66044;53.142;17.962;2023-04-22T10:43:54;6.80;;;1.70;;
77018;SDS011;66044;53.142;17.962;2023-04-22T10:49:09;6.20;;;1.80;;
77018;SDS011;66044;53.142;17.962;2023-04-22T10:51:44;6.20;;;1.80;;
77018;SDS011;66044;53.142;17.962;2023-04-22T10:59:46;9.70;;;2.60;;
77018;SDS011;66044;53.142;17.962;2023-04-22T11:02:14;10.90;;;3.20;;
77018;SDS011;66044;53.142;17.962;2023-04-22T11:04:41;14.60;;;4.10;;
77018;SDS011;66044;53.142;17.962;2023-04-22T11:10:07;8.50;;;2.50;;
77018;SDS011;66044;53.142;17.962;2023-04-22T11:12:41;6.60;;;2.20;;
77018;SDS011;66044;53.142;17.962;2023-04-22T11:17:43;17.00;;;3.00;;
77018;SDS011;66044;53.142;17.962;2023-04-22T11:20:12;11.00;;;2.30;;
77018;SDS011;66044;53.142;17.962;2023-04-22T11:22:50;6.70;;;2.30;;
77018;SDS011;66044;53.142;17.962;2023-04-22T11:25:18;8.90;;;1.90;;
77018;SDS011;66044;53.142;17.962;2023-04-22T11:27:46;5.30;;;1.80;;
77018;SDS011;66044;53.142;17.962;2023-04-22T11:30:14;4.80;;;1.60;;
77018;SDS011;66044;53.142;17.962;2023-04-22T11:32:43;6.90;;;1.80;;
77018;SDS011;66044;53.142;17.962;2023-04-22T11:35:21;5.10;;;1.60;;
77018;SDS011;66044;53.142;17.962;2023-04-22T11:37:55;5.10;;;1.70;;
77018;SDS011;66044;53.142;17.962;2023-04-22T11:40:25;8.30;;;2.00;;
77018;SDS011;66044;53.142;17.962;2023-04-22T11:42:52;6.50;;;1.90;;
77018;SDS011;66044;53.142;17.962;2023-04-22T11:45:19;7.30;;;1.80;;
77018;SDS011;66044;53.142;17.962;2023-04-22T11:47:46;7.60;;;2.40;;
77018;SDS011;66044;53.142;17.962;2023-04-22T11:50:16;6.80;;;2.10;;
77018;SDS011;66044;53.142;17.962;2023-04-22T11:55:21;6.50;;;2.10;;
77018;SDS011;66044;53.142;17.962;2023-04-22T11:57:52;5.30;;;1.90;;
77018;SDS011;66044;53.142;17.962;2023-04-22T12:00:21;5.90;;;1.60;;
77018;SDS011;66044;53.142;17.962;2023-04-22T12:02:55;6.40;;;1.80;;
77018;SDS011;66044;53.142;17.962;2023-04-22T12:08:07;7.40;;;2.30;;
77018;SDS011;66044;53.142;17.962;2023-04-22T12:10:51;5.80;;;1.90;;
77018;SDS011;66044;53.142;17.962;2023-04-22T12:13:32;5.60;;;1.80;;
77018;SDS011;66044;53.142;17.962;2023-04-22T12:16:13;6.00;;;2.20;;
77018;SDS011;66044;53.142;17.962;2023-04-22T12:21:22;5.60;;;2.00;;
77018;SDS011;66044;53.142;17.962;2023-04-22T12:26:18;6.80;;;2.40;;
77018;SDS011;66044;53.142;17.962;2023-04-22T12:28:47;6.60;;;1.90;;
77018;SDS011;66044;53.142;17.962;2023-04-22T12:31:13;7.10;;;2.10;;
77018;SDS011;66044;53.142;17.962;2023-04-22T12:33:40;7.00;;;2.50;;
77018;SDS011;66044;53.142;17.962;2023-04-22T12:36:08;7.40;;;1.80;;
77018;SDS011;66044;53.142;17.962;2023-04-22T12:38:35;6.40;;;2.30;;
77018;SDS011;66044;53.142;17.962;2023-04-22T12:41:02;5.80;;;1.60;;
77018;SDS011;66044;53.142;17.962;2023-04-22T12:43:30;6.70;;;2.20;;
77018;SDS011;66044;53.142;17.962;2023-04-22T12:46:02;6.00;;;1.80;;
77018;SDS011;66044;53.142;17.962;2023-04-22T12:48:29;5.30;;;1.80;;
77018;SDS011;66044;53.142;17.962;2023-04-22T12:50:55;6.30;;;1.90;;
77018;SDS011;66044;53.142;17.962;2023-04-22T12:53:23;6.00;;;2.30;;
77018;SDS011;66044;53.142;17.962;2023-04-22T12:55:49;6.80;;;2.30;;
77018;SDS011;66044;53.142;17.962;2023-04-22T12:58:16;6.70;;;2.00;;
77018;SDS011;66044;53.142;17.962;2023-04-22T13:00:42;6.50;;;2.10;;
77018;SDS011;66044;53.142;17.962;2023-04-22T13:03:09;4.90;;;1.50;;
77018;SDS011;66044;53.142;17.962;2023-04-22T13:05:36;6.40;;;2.40;;
77018;SDS011;66044;53.142;17.962;2023-04-22T13:08:03;5.70;;;1.90;;
77018;SDS011;66044;53.142;17.962;2023-04-22T13:10:29;4.90;;;1.70;;
77018;SDS011;66044;53.142;17.962;2023-04-22T13:12:56;6.30;;;2.10;;
77018;SDS011;66044;53.142;17.962;2023-04-22T13:15:23;5.80;;;1.90;;
77018;SDS011;66044;53.142;17.962;2023-04-22T13:17:51;5.40;;;2.00;;
77018;SDS011;66044;53.142;17.962;2023-04-22T13:20:18;5.90;;;2.20;;
77018;SDS011;66044;53.142;17.962;2023-04-22T13:22:44;5.20;;;1.70;;
77018;SDS011;66044;53.142;17.962;2023-04-22T13:25:12;7.10;;;2.00;;
77018;SDS011;66044;53.142;17.962;2023-04-22T13:27:38;5.30;;;1.80;;
77018;SDS011;66044;53.142;17.962;2023-04-22T13:30:05;8.50;;;2.20;;
77018;SDS011;66044;53.142;17.962;2023-04-22T13:32:32;5.60;;;2.20;;
77018;SDS011;66044;53.142;17.962;2023-04-22T13:34:59;8.40;;;2.00;;
77018;SDS011;66044;53.142;17.962;2023-04-22T13:37:26;4.80;;;1.70;;
77018;SDS011;66044;53.142;17.962;2023-04-22T13:39:52;5.10;;;1.80;;
77018;SDS011;66044;53.142;17.962;2023-04-22T13:42:19;5.50;;;1.80;;
77018;SDS011;66044;53.142;17.962;2023-04-22T13:44:46;6.40;;;1.90;;
77018;SDS011;66044;53.142;17.962;2023-04-22T13:47:12;6.90;;;1.80;;
77018;SDS011;66044;53.142;17.962;2023-04-22T13:49:38;7.20;;;2.10;;
77018;SDS011;66044;53.142;17.962;2023-04-22T13:52:05;7.60;;;3.00;;
77018;SDS011;66044;53.142;17.962;2023-04-22T13:54:32;9.00;;;3.30;;
77018;SDS011;66044;53.142;17.962;2023-04-22T13:56:58;6.60;;;2.50;;
77018;SDS011;66044;53.142;17.962;2023-04-22T13:59:24;5.90;;;2.00;;
77018;SDS011;66044;53.142;17.962;2023-04-22T14:01:51;7.90;;;2.30;;
77018;SDS011;66044;53.142;17.962;2023-04-22T14:04:17;6.50;;;2.30;;
77018;SDS011;66044;53.142;17.962;2023-04-22T14:06:44;9.20;;;4.20;;
77018;SDS011;66044;53.142;17.962;2023-04-22T14:09:11;7.30;;;3.50;;
77018;SDS011;66044;53.142;17.962;2023-04-22T14:11:37;6.60;;;2.60;;
77018;SDS011;66044;53.142;17.962;2023-04-22T14:14:04;6.20;;;2.30;;
77018;SDS011;66044;53.142;17.962;2023-04-22T14:16:31;6.50;;;2.60;;
77018;SDS011;66044;53.142;17.962;2023-04-22T14:18:57;6.80;;;2.60;;
77018;SDS011;66044;53.142;17.962;2023-04-22T14:21:24;6.60;;;2.50;;
77018;SDS011;66044;53.142;17.962;2023-04-22T14:23:51;6.40;;;2.60;;
77018;SDS011;66044;53.142;17.962;2023-04-22T14:26:18;7.40;;;2.90;;
77018;SDS011;66044;53.142;17.962;2023-04-22T14:28:44;7.10;;;2.90;;
77018;SDS011;66044;53.142;17.962;2023-04-22T14:31:11;7.60;;;3.00;;
77018;SDS011;66044;53.142;17.962;2023-04-22T14:33:37;7.50;;;2.80;;
77018;SDS011;66044;53.142;17.962;2023-04-22T14:36:04;7.00;;;2.70;;
77018;SDS011;66044;53.142;17.962;2023-04-22T14:38:30;6.40;;;2.60;;
77018;SDS011;66044;53.142;17.962;2023-04-22T14:40:57;7.60;;;3.10;;
77018;SDS011;66044;53.142;17.962;2023-04-22T14:43:23;8.70;;;3.30;;
77018;SDS011;66044;53.142;17.962;2023-04-22T14:45:50;7.40;;;3.40;;
77018;SDS011;66044;53.142;17.962;2023-04-22T14:48:16;8.20;;;3.00;;
77018;SDS011;66044;53.142;17.962;2023-04-22T14:50:43;7.40;;;3.00;;
77018;SDS011;66044;53.142;17.962;2023-04-22T14:53:09;8.20;;;3.20;;
77018;SDS011;66044;53.142;17.962;2023-04-22T14:55:36;6.80;;;3.30;;
77018;SDS011;66044;53.142;17.962;2023-04-22T14:58:02;8.10;;;3.40;;
77018;SDS011;66044;53.142;17.962;2023-04-22T15:00:29;7.20;;;3.20;;
77018;SDS011;66044;53.142;17.962;2023-04-22T15:02:55;7.50;;;3.30;;
77018;SDS011;66044;53.142;17.962;2023-04-22T15:05:22;9.70;;;3.70;;